sensor_id;sensor_type;location;lat;lon;timestamp;pressure;altitude;pressure_sealevel;temperature;humidity
64053;BME280;50299;49.524;8.536;2022-07-09T00:00:11;101660.94;;;12.77;60.90
64053;BME280;50299;49.524;8.536;2022-07-09T00:02:37;101658.75;;;12.88;60.31
64053;BME280;50299;49.524;8.536;2022-07-09T00:05:05;101661.72;;;12.92;59.18
64053;BME280;50299;49.524;8.536;2022-07-09T00:07:32;101662.78;;;12.82;56.37
64053;BME280;50299;49.524;8.536;2022-07-09T00:09:59;101649.97;;;12.72;56.69
64053;BME280;50299;49.524;8.536;2022-07-09T00:12:25;101650.50;;;12.61;56.46
64053;BME280;50299;49.524;8.536;2022-07-09T00:14:51;101652.13;;;12.39;55.52
64053;BME280;50299;49.524;8.536;2022-07-09T00:17:18;101652.25;;;12.20;55.75
64053;BME280;50299;49.524;8.536;2022-07-09T00:19:44;101654.34;;;12.15;56.05
64053;BME280;50299;49.524;8.536;2022-07-09T00:22:11;101650.41;;;12.16;55.92
64053;BME280;50299;49.524;8.536;2022-07-09T00:24:38;101648.78;;;12.15;55.63
64053;BME280;50299;49.524;8.536;2022-07-09T00:27:04;101646.72;;;12.20;56.34
64053;BME280;50299;49.524;8.536;2022-07-09T00:29:31;101642.31;;;12.19;56.13
64053;BME280;50299;49.524;8.536;2022-07-09T00:31:57;101638.63;;;12.10;56.78
64053;BME280;50299;49.524;8.536;2022-07-09T00:34:24;101633.31;;;12.00;56.33
64053;BME280;50299;49.524;8.536;2022-07-09T00:36:50;101634.56;;;11.94;57.00
64053;BME280;50299;49.524;8.536;2022-07-09T00:39:17;101630.31;;;11.96;56.79
64053;BME280;50299;49.524;8.536;2022-07-09T00:41:43;101627.88;;;11.95;56.52
64053;BME280;50299;49.524;8.536;2022-07-09T00:44:10;101635.50;;;11.89;56.69
64053;BME280;50299;49.524;8.536;2022-07-09T00:46:36;101630.66;;;11.81;57.08
64053;BME280;50299;49.524;8.536;2022-07-09T00:49:02;101630.13;;;11.65;57.60
64053;BME280;50299;49.524;8.536;2022-07-09T00:51:33;101626.13;;;11.57;58.02
64053;BME280;50299;49.524;8.536;2022-07-09T00:53:59;101629.41;;;11.46;58.21
64053;BME280;50299;49.524;8.536;2022-07-09T00:56:28;101617.19;;;11.19;59.68
64053;BME280;50299;49.524;8.536;2022-07-09T00:58:56;101618.03;;;10.87;61.14
64053;BME280;50299;49.524;8.536;2022-07-09T01:01:23;101614.94;;;10.89;60.91
64053;BME280;50299;49.524;8.536;2022-07-09T01:03:49;101618.41;;;10.80;61.83
64053;BME280;50299;49.524;8.536;2022-07-09T01:06:16;101616.59;;;10.71;61.85
64053;BME280;50299;49.524;8.536;2022-07-09T01:08:42;101616.22;;;10.77;61.33
64053;BME280;50299;49.524;8.536;2022-07-09T01:11:08;101619.84;;;10.78;61.00
64053;BME280;50299;49.524;8.536;2022-07-09T01:13:35;101611.91;;;10.71;60.95
64053;BME280;50299;49.524;8.536;2022-07-09T01:16:02;101610.19;;;10.75;60.94
64053;BME280;50299;49.524;8.536;2022-07-09T01:18:28;101611.44;;;10.64;61.09
64053;BME280;50299;49.524;8.536;2022-07-09T01:20:55;101614.84;;;10.61;61.06
64053;BME280;50299;49.524;8.536;2022-07-09T01:23:21;101620.97;;;10.58;61.12
64053;BME280;50299;49.524;8.536;2022-07-09T01:25:48;101615.13;;;10.59;60.68
64053;BME280;50299;49.524;8.536;2022-07-09T01:28:14;101612.06;;;10.61;60.75
64053;BME280;50299;49.524;8.536;2022-07-09T01:30:41;101611.53;;;10.59;60.76
64053;BME280;50299;49.524;8.536;2022-07-09T01:33:08;101608.56;;;10.55;61.46
64053;BME280;50299;49.524;8.536;2022-07-09T01:35:35;101610.41;;;10.60;62.18
64053;BME280;50299;49.524;8.536;2022-07-09T01:38:02;101606.00;;;10.59;61.13
64053;BME280;50299;49.524;8.536;2022-07-09T01:40:28;101602.66;;;10.62;61.46
64053;BME280;50299;49.524;8.536;2022-07-09T01:42:55;101596.31;;;10.61;60.59
64053;BME280;50299;49.524;8.536;2022-07-09T01:45:22;101594.84;;;10.64;60.37
64053;BME280;50299;49.524;8.536;2022-07-09T01:47:48;101595.31;;;10.71;60.25
64053;BME280;50299;49.524;8.536;2022-07-09T01:50:15;101596.38;;;10.75;60.09
64053;BME280;50299;49.524;8.536;2022-07-09T01:52:42;101595.81;;;10.73;60.46
64053;BME280;50299;49.524;8.536;2022-07-09T01:55:08;101594.16;;;10.72;60.09
64053;BME280;50299;49.524;8.536;2022-07-09T01:57:35;101590.09;;;10.70;61.08
64053;BME280;50299;49.524;8.536;2022-07-09T02:00:33;101592.22;;;10.73;61.33
64053;BME280;50299;49.524;8.536;2022-07-09T02:03:00;101595.13;;;10.81;60.73
64053;BME280;50299;49.524;8.536;2022-07-09T02:05:26;101584.22;;;10.90;60.44
64053;BME280;50299;49.524;8.536;2022-07-09T02:07:53;101593.03;;;10.92;60.64
64053;BME280;50299;49.524;8.536;2022-07-09T02:10:19;101589.09;;;10.79;60.80
64053;BME280;50299;49.524;8.536;2022-07-09T02:12:45;101585.44;;;10.65;60.58
64053;BME280;50299;49.524;8.536;2022-07-09T02:15:12;101587.59;;;10.68;60.90
64053;BME280;50299;49.524;8.536;2022-07-09T02:17:39;101584.03;;;10.68;60.84
64053;BME280;50299;49.524;8.536;2022-07-09T02:20:06;101577.75;;;10.62;61.21
64053;BME280;50299;49.524;8.536;2022-07-09T02:22:34;101578.97;;;10.56;60.70
64053;BME280;50299;49.524;8.536;2022-07-09T02:25:01;101582.34;;;10.53;62.71
64053;BME280;50299;49.524;8.536;2022-07-09T02:27:27;101582.81;;;10.74;61.87
64053;BME280;50299;49.524;8.536;2022-07-09T02:29:54;101588.19;;;10.84;61.74
64053;BME280;50299;49.524;8.536;2022-07-09T02:32:20;101596.19;;;10.85;61.35
64053;BME280;50299;49.524;8.536;2022-07-09T02:34:47;101584.00;;;10.87;61.10
64053;BME280;50299;49.524;8.536;2022-07-09T02:37:13;101583.31;;;10.95;61.97
64053;BME280;50299;49.524;8.536;2022-07-09T02:39:40;101587.06;;;10.85;62.39
64053;BME280;50299;49.524;8.536;2022-07-09T02:42:06;101592.00;;;10.88;61.74
64053;BME280;50299;49.524;8.536;2022-07-09T02:44:32;101591.69;;;10.90;61.29
64053;BME280;50299;49.524;8.536;2022-07-09T02:46:59;101590.88;;;10.89;60.45
64053;BME280;50299;49.524;8.536;2022-07-09T02:49:25;101599.72;;;11.05;66.50
64053;BME280;50299;49.524;8.536;2022-07-09T02:51:52;101594.66;;;10.93;60.05
64053;BME280;50299;49.524;8.536;2022-07-09T02:54:18;101598.00;;;10.76;59.03
64053;BME280;50299;49.524;8.536;2022-07-09T02:56:45;101598.72;;;10.49;59.71
64053;BME280;50299;49.524;8.536;2022-07-09T02:59:11;101598.56;;;10.41;60.35
64053;BME280;50299;49.524;8.536;2022-07-09T03:01:37;101599.31;;;10.27;60.08
64053;BME280;50299;49.524;8.536;2022-07-09T03:04:04;101590.78;;;10.24;60.67
64053;BME280;50299;49.524;8.536;2022-07-09T03:06:30;101584.75;;;10.03;61.29
64053;BME280;50299;49.524;8.536;2022-07-09T03:08:57;101590.66;;;9.96;61.92
64053;BME280;50299;49.524;8.536;2022-07-09T03:11:23;101588.25;;;9.90;65.11
64053;BME280;50299;49.524;8.536;2022-07-09T03:13:50;101586.75;;;9.97;62.89
64053;BME280;50299;49.524;8.536;2022-07-09T03:16:16;101585.94;;;9.97;62.86
64053;BME280;50299;49.524;8.536;2022-07-09T03:18:43;101586.59;;;10.07;62.31
64053;BME280;50299;49.524;8.536;2022-07-09T03:21:09;101589.59;;;9.92;62.04
64053;BME280;50299;49.524;8.536;2022-07-09T03:23:38;101592.47;;;9.58;63.59
64053;BME280;50299;49.524;8.536;2022-07-09T03:26:07;101590.72;;;9.91;65.29
64053;BME280;50299;49.524;8.536;2022-07-09T03:28:34;101585.88;;;10.02;62.50
64053;BME280;50299;49.524;8.536;2022-07-09T03:31:01;101575.63;;;10.02;61.64
64053;BME280;50299;49.524;8.536;2022-07-09T03:33:28;101576.16;;;9.85;62.13
64053;BME280;50299;49.524;8.536;2022-07-09T03:35:54;101574.34;;;9.95;61.92
64053;BME280;50299;49.524;8.536;2022-07-09T03:38:24;101576.84;;;9.96;61.41
64053;BME280;50299;49.524;8.536;2022-07-09T03:40:51;101579.28;;;9.98;63.18
64053;BME280;50299;49.524;8.536;2022-07-09T03:43:17;101578.78;;;10.15;61.23
64053;BME280;50299;49.524;8.536;2022-07-09T03:45:44;101581.25;;;10.16;61.42
64053;BME280;50299;49.524;8.536;2022-07-09T03:48:10;101583.56;;;10.09;61.95
64053;BME280;50299;49.524;8.536;2022-07-09T03:50:36;101585.78;;;9.88;61.67
64053;BME280;50299;49.524;8.536;2022-07-09T03:53:03;101585.31;;;9.81;61.72
64053;BME280;50299;49.524;8.536;2022-07-09T03:55:29;101589.97;;;9.85;63.07
64053;BME280;50299;49.524;8.536;2022-07-09T03:57:56;101584.38;;;9.67;63.13
64053;BME280;50299;49.524;8.536;2022-07-09T04:00:22;101586.03;;;9.68;66.33
64053;BME280;50299;49.524;8.536;2022-07-09T04:02:49;101582.78;;;9.84;64.02
64053;BME280;50299;49.524;8.536;2022-07-09T04:05:15;101585.28;;;10.05;63.19
64053;BME280;50299;49.524;8.536;2022-07-09T04:07:42;101580.28;;;10.26;62.89
64053;BME280;50299;49.524;8.536;2022-07-09T04:10:08;101577.56;;;10.40;62.05
64053;BME280;50299;49.524;8.536;2022-07-09T04:12:35;101591.50;;;10.48;61.26
64053;BME280;50299;49.524;8.536;2022-07-09T04:15:02;101595.19;;;10.44;61.17
64053;BME280;50299;49.524;8.536;2022-07-09T04:17:28;101586.00;;;10.48;61.23
64053;BME280;50299;49.524;8.536;2022-07-09T04:19:55;101587.34;;;10.51;60.73
64053;BME280;50299;49.524;8.536;2022-07-09T04:22:21;101587.47;;;10.59;60.91
64053;BME280;50299;49.524;8.536;2022-07-09T04:24:48;101593.44;;;10.67;62.24
64053;BME280;50299;49.524;8.536;2022-07-09T04:27:14;101590.25;;;10.78;61.55
64053;BME280;50299;49.524;8.536;2022-07-09T04:29:40;101595.63;;;11.16;62.96
64053;BME280;50299;49.524;8.536;2022-07-09T04:32:07;101594.13;;;11.24;60.07
64053;BME280;50299;49.524;8.536;2022-07-09T04:34:33;101590.75;;;11.27;59.26
64053;BME280;50299;49.524;8.536;2022-07-09T04:37:00;101590.63;;;11.46;60.23
64053;BME280;50299;49.524;8.536;2022-07-09T04:39:26;101594.84;;;11.71;58.36
64053;BME280;50299;49.524;8.536;2022-07-09T04:41:53;101592.09;;;11.84;57.08
64053;BME280;50299;49.524;8.536;2022-07-09T04:44:19;101593.16;;;12.11;58.42
64053;BME280;50299;49.524;8.536;2022-07-09T04:46:46;101594.22;;;12.60;58.89
64053;BME280;50299;49.524;8.536;2022-07-09T04:49:12;101597.25;;;12.72;56.39
64053;BME280;50299;49.524;8.536;2022-07-09T04:51:39;101592.91;;;13.11;56.22
64053;BME280;50299;49.524;8.536;2022-07-09T04:54:05;101594.94;;;13.59;56.64
64053;BME280;50299;49.524;8.536;2022-07-09T04:56:32;101592.28;;;14.11;57.06
64053;BME280;50299;49.524;8.536;2022-07-09T04:58:58;101592.13;;;14.60;54.58
64053;BME280;50299;49.524;8.536;2022-07-09T05:01:26;101600.56;;;15.07;57.21
64053;BME280;50299;49.524;8.536;2022-07-09T05:03:53;101596.28;;;15.56;54.73
64053;BME280;50299;49.524;8.536;2022-07-09T05:06:19;101584.28;;;15.94;54.59
64053;BME280;50299;49.524;8.536;2022-07-09T05:08:46;101593.94;;;16.38;53.21
64053;BME280;50299;49.524;8.536;2022-07-09T05:11:13;101584.44;;;16.72;53.15
64053;BME280;50299;49.524;8.536;2022-07-09T05:13:44;101585.81;;;16.99;51.86
64053;BME280;50299;49.524;8.536;2022-07-09T05:16:12;101585.13;;;17.15;50.89
64053;BME280;50299;49.524;8.536;2022-07-09T05:18:38;101577.50;;;17.36;49.40
64053;BME280;50299;49.524;8.536;2022-07-09T05:21:05;101582.38;;;17.51;50.13
64053;BME280;50299;49.524;8.536;2022-07-09T05:23:33;101579.59;;;17.51;47.35
64053;BME280;50299;49.524;8.536;2022-07-09T05:26:00;101578.22;;;17.58;51.23
64053;BME280;50299;49.524;8.536;2022-07-09T05:28:26;101580.19;;;17.57;47.15
64053;BME280;50299;49.524;8.536;2022-07-09T05:30:53;101583.56;;;17.38;47.22
64053;BME280;50299;49.524;8.536;2022-07-09T05:33:39;101575.88;;;17.60;46.05
64053;BME280;50299;49.524;8.536;2022-07-09T05:36:06;101580.53;;;17.68;47.72
64053;BME280;50299;49.524;8.536;2022-07-09T05:38:32;101580.06;;;17.54;45.65
64053;BME280;50299;49.524;8.536;2022-07-09T05:40:59;101580.31;;;17.48;46.54
64053;BME280;50299;49.524;8.536;2022-07-09T05:43:25;101582.03;;;17.29;46.80
64053;BME280;50299;49.524;8.536;2022-07-09T05:45:52;101580.69;;;17.01;45.48
64053;BME280;50299;49.524;8.536;2022-07-09T05:48:18;101576.94;;;16.85;49.62
64053;BME280;50299;49.524;8.536;2022-07-09T05:50:45;101588.69;;;16.79;48.39
64053;BME280;50299;49.524;8.536;2022-07-09T05:53:11;101587.13;;;16.69;50.88
64053;BME280;50299;49.524;8.536;2022-07-09T05:55:38;101585.00;;;16.66;50.45
64053;BME280;50299;49.524;8.536;2022-07-09T05:58:04;101579.75;;;16.64;51.41
64053;BME280;50299;49.524;8.536;2022-07-09T06:00:31;101578.94;;;16.64;51.21
64053;BME280;50299;49.524;8.536;2022-07-09T06:02:57;101576.81;;;16.61;52.94
64053;BME280;50299;49.524;8.536;2022-07-09T06:05:23;101573.63;;;16.71;49.81
64053;BME280;50299;49.524;8.536;2022-07-09T06:07:50;101579.28;;;16.95;52.47
64053;BME280;50299;49.524;8.536;2022-07-09T06:10:16;101576.19;;;17.34;50.26
64053;BME280;50299;49.524;8.536;2022-07-09T06:12:43;101576.75;;;17.88;51.54
64053;BME280;50299;49.524;8.536;2022-07-09T06:15:10;101579.19;;;18.42;47.89
64053;BME280;50299;49.524;8.536;2022-07-09T06:17:37;101569.06;;;18.94;47.06
64053;BME280;50299;49.524;8.536;2022-07-09T06:20:05;101576.94;;;19.20;44.08
64053;BME280;50299;49.524;8.536;2022-07-09T06:22:32;101577.56;;;19.29;42.73
64053;BME280;50299;49.524;8.536;2022-07-09T06:24:58;101582.25;;;19.41;42.90
64053;BME280;50299;49.524;8.536;2022-07-09T06:27:25;101575.69;;;19.49;41.23
64053;BME280;50299;49.524;8.536;2022-07-09T06:29:51;101580.25;;;19.73;43.68
64053;BME280;50299;49.524;8.536;2022-07-09T06:32:17;101582.44;;;19.99;42.92
64053;BME280;50299;49.524;8.536;2022-07-09T06:34:44;101573.34;;;20.21;42.99
64053;BME280;50299;49.524;8.536;2022-07-09T06:37:10;101576.31;;;20.29;39.27
64053;BME280;50299;49.524;8.536;2022-07-09T06:39:37;101571.22;;;20.34;39.88
64053;BME280;50299;49.524;8.536;2022-07-09T06:42:14;101577.94;;;20.30;44.01
64053;BME280;50299;49.524;8.536;2022-07-09T06:44:42;101573.78;;;20.43;39.94
64053;BME280;50299;49.524;8.536;2022-07-09T06:47:10;101580.22;;;20.43;40.39
64053;BME280;50299;49.524;8.536;2022-07-09T06:49:37;101584.28;;;20.46;40.16
64053;BME280;50299;49.524;8.536;2022-07-09T06:52:04;101587.00;;;20.62;38.33
64053;BME280;50299;49.524;8.536;2022-07-09T06:54:31;101584.25;;;20.85;40.82
64053;BME280;50299;49.524;8.536;2022-07-09T06:56:57;101587.16;;;21.11;38.47
64053;BME280;50299;49.524;8.536;2022-07-09T06:59:31;101584.22;;;21.27;40.58
64053;BME280;50299;49.524;8.536;2022-07-09T07:01:57;101581.56;;;21.61;37.50
64053;BME280;50299;49.524;8.536;2022-07-09T07:04:24;101591.31;;;21.67;36.83
64053;BME280;50299;49.524;8.536;2022-07-09T07:06:51;101587.34;;;21.72;36.37
64053;BME280;50299;49.524;8.536;2022-07-09T07:09:18;101582.75;;;21.86;37.26
64053;BME280;50299;49.524;8.536;2022-07-09T07:11:46;101587.56;;;22.12;37.45
64053;BME280;50299;49.524;8.536;2022-07-09T07:14:12;101580.47;;;22.56;39.22
64053;BME280;50299;49.524;8.536;2022-07-09T07:16:38;101589.81;;;23.01;36.53
64053;BME280;50299;49.524;8.536;2022-07-09T07:19:06;101590.09;;;23.26;36.18
64053;BME280;50299;49.524;8.536;2022-07-09T07:21:32;101584.53;;;23.40;34.66
64053;BME280;50299;49.524;8.536;2022-07-09T07:23:59;101582.59;;;23.48;33.37
64053;BME280;50299;49.524;8.536;2022-07-09T07:26:25;101582.44;;;23.81;36.21
64053;BME280;50299;49.524;8.536;2022-07-09T07:28:52;101579.00;;;24.13;33.98
64053;BME280;50299;49.524;8.536;2022-07-09T07:31:18;101585.47;;;24.17;35.50
64053;BME280;50299;49.524;8.536;2022-07-09T07:33:45;101569.09;;;24.58;33.15
64053;BME280;50299;49.524;8.536;2022-07-09T07:36:11;101569.97;;;24.77;31.38
64053;BME280;50299;49.524;8.536;2022-07-09T07:38:38;101571.94;;;24.66;32.30
64053;BME280;50299;49.524;8.536;2022-07-09T07:41:04;101575.28;;;24.89;35.84
64053;BME280;50299;49.524;8.536;2022-07-09T07:43:31;101569.63;;;25.14;33.09
64053;BME280;50299;49.524;8.536;2022-07-09T07:45:57;101567.97;;;25.67;32.09
64053;BME280;50299;49.524;8.536;2022-07-09T07:48:31;101563.13;;;25.74;29.47
64053;BME280;50299;49.524;8.536;2022-07-09T07:50:58;101566.81;;;25.14;30.70
64053;BME280;50299;49.524;8.536;2022-07-09T07:53:25;101555.06;;;25.37;31.89
64053;BME280;50299;49.524;8.536;2022-07-09T07:55:51;101563.56;;;25.55;31.50
64053;BME280;50299;49.524;8.536;2022-07-09T07:58:18;101562.75;;;25.54;29.29
64053;BME280;50299;49.524;8.536;2022-07-09T08:00:44;101561.88;;;25.82;32.24
64053;BME280;50299;49.524;8.536;2022-07-09T08:03:10;101556.47;;;26.27;29.96
64053;BME280;50299;49.524;8.536;2022-07-09T08:05:37;101568.16;;;26.47;30.56
64053;BME280;50299;49.524;8.536;2022-07-09T08:08:04;101551.50;;;26.53;31.04
64053;BME280;50299;49.524;8.536;2022-07-09T08:10:30;101555.38;;;26.80;29.20
64053;BME280;50299;49.524;8.536;2022-07-09T08:13:01;101556.66;;;26.76;29.48
64053;BME280;50299;49.524;8.536;2022-07-09T08:15:28;101549.47;;;27.16;27.66
64053;BME280;50299;49.524;8.536;2022-07-09T08:17:54;101549.91;;;27.11;29.30
64053;BME280;50299;49.524;8.536;2022-07-09T08:20:21;101554.03;;;27.03;26.83
64053;BME280;50299;49.524;8.536;2022-07-09T08:22:48;101549.84;;;26.63;28.23
64053;BME280;50299;49.524;8.536;2022-07-09T08:25:14;101541.59;;;26.13;28.61
64053;BME280;50299;49.524;8.536;2022-07-09T08:27:41;101544.16;;;25.60;30.56
64053;BME280;50299;49.524;8.536;2022-07-09T08:30:08;101535.66;;;25.50;29.10
64053;BME280;50299;49.524;8.536;2022-07-09T08:32:35;101533.97;;;25.84;29.14
64053;BME280;50299;49.524;8.536;2022-07-09T08:35:02;101523.81;;;26.05;29.88
64053;BME280;50299;49.524;8.536;2022-07-09T08:37:29;101529.28;;;26.37;28.26
64053;BME280;50299;49.524;8.536;2022-07-09T08:39:55;101523.84;;;26.75;30.04
64053;BME280;50299;49.524;8.536;2022-07-09T08:42:22;101516.53;;;26.74;27.09
64053;BME280;50299;49.524;8.536;2022-07-09T08:44:49;101517.13;;;26.47;28.07
64053;BME280;50299;49.524;8.536;2022-07-09T08:47:16;101519.56;;;26.45;30.25
64053;BME280;50299;49.524;8.536;2022-07-09T08:49:43;101508.25;;;26.42;28.16
64053;BME280;50299;49.524;8.536;2022-07-09T08:52:11;101511.06;;;26.42;27.16
64053;BME280;50299;49.524;8.536;2022-07-09T08:54:39;101503.66;;;25.74;27.87
64053;BME280;50299;49.524;8.536;2022-07-09T08:57:08;101510.09;;;25.85;27.78
64053;BME280;50299;49.524;8.536;2022-07-09T08:59:34;101506.47;;;25.85;29.11
64053;BME280;50299;49.524;8.536;2022-07-09T09:02:07;101507.41;;;26.41;27.79
64053;BME280;50299;49.524;8.536;2022-07-09T09:04:38;101502.94;;;26.44;28.15
64053;BME280;50299;49.524;8.536;2022-07-09T09:07:18;101498.03;;;25.64;27.90
64053;BME280;50299;49.524;8.536;2022-07-09T09:09:45;101499.00;;;23.84;31.40
64053;BME280;50299;49.524;8.536;2022-07-09T09:12:12;101496.31;;;24.20;29.82
64053;BME280;50299;49.524;8.536;2022-07-09T09:14:39;101493.16;;;24.39;29.21
64053;BME280;50299;49.524;8.536;2022-07-09T09:17:14;101490.25;;;24.21;30.26
64053;BME280;50299;49.524;8.536;2022-07-09T09:19:40;101485.47;;;24.43;29.49
64053;BME280;50299;49.524;8.536;2022-07-09T09:22:07;101487.09;;;24.48;28.92
64053;BME280;50299;49.524;8.536;2022-07-09T09:24:35;101498.78;;;23.52;30.75
64053;BME280;50299;49.524;8.536;2022-07-09T09:27:01;101495.13;;;22.55;32.02
64053;BME280;50299;49.524;8.536;2022-07-09T09:29:28;101493.31;;;22.36;31.93
64053;BME280;50299;49.524;8.536;2022-07-09T09:31:55;101483.88;;;22.55;31.94
64053;BME280;50299;49.524;8.536;2022-07-09T09:34:23;101490.66;;;22.91;32.58
64053;BME280;50299;49.524;8.536;2022-07-09T09:36:51;101493.91;;;23.42;31.50
64053;BME280;50299;49.524;8.536;2022-07-09T09:39:20;101492.81;;;23.09;32.55
64053;BME280;50299;49.524;8.536;2022-07-09T09:41:54;101488.97;;;22.80;32.72
64053;BME280;50299;49.524;8.536;2022-07-09T09:44:26;101482.78;;;22.63;32.56
64053;BME280;50299;49.524;8.536;2022-07-09T09:46:55;101490.03;;;23.12;32.32
64053;BME280;50299;49.524;8.536;2022-07-09T09:49:22;101489.72;;;23.21;31.75
64053;BME280;50299;49.524;8.536;2022-07-09T09:52:05;101485.09;;;21.90;33.15
64053;BME280;50299;49.524;8.536;2022-07-09T09:54:34;101483.38;;;22.50;34.26
64053;BME280;50299;49.524;8.536;2022-07-09T09:57:06;101483.88;;;23.51;31.45
64053;BME280;50299;49.524;8.536;2022-07-09T09:59:34;101484.09;;;23.28;32.03
64053;BME280;50299;49.524;8.536;2022-07-09T10:02:02;101475.72;;;24.16;30.59
64053;BME280;50299;49.524;8.536;2022-07-09T10:04:30;101477.09;;;25.07;29.85
64053;BME280;50299;49.524;8.536;2022-07-09T10:06:57;101466.97;;;25.21;28.98
64053;BME280;50299;49.524;8.536;2022-07-09T10:09:23;101459.31;;;25.03;29.07
64053;BME280;50299;49.524;8.536;2022-07-09T10:11:50;101460.44;;;25.38;29.34
64053;BME280;50299;49.524;8.536;2022-07-09T10:14:28;101462.13;;;25.00;28.45
64053;BME280;50299;49.524;8.536;2022-07-09T10:16:55;101461.31;;;25.39;28.22
64053;BME280;50299;49.524;8.536;2022-07-09T10:19:26;101463.34;;;24.99;28.44
64053;BME280;50299;49.524;8.536;2022-07-09T10:21:54;101464.50;;;24.51;29.96
64053;BME280;50299;49.524;8.536;2022-07-09T10:24:32;101461.31;;;24.74;29.44
64053;BME280;50299;49.524;8.536;2022-07-09T10:27:09;101462.03;;;24.25;30.49
64053;BME280;50299;49.524;8.536;2022-07-09T10:32:29;101459.34;;;23.62;31.22
64053;BME280;50299;49.524;8.536;2022-07-09T10:35:00;101452.69;;;24.10;30.20
64053;BME280;50299;49.524;8.536;2022-07-09T10:37:43;101455.63;;;24.60;31.91
64053;BME280;50299;49.524;8.536;2022-07-09T10:40:18;101459.69;;;25.20;28.91
64053;BME280;50299;49.524;8.536;2022-07-09T10:42:57;101446.22;;;25.70;28.08
64053;BME280;50299;49.524;8.536;2022-07-09T10:45:26;101441.91;;;26.28;28.72
64053;BME280;50299;49.524;8.536;2022-07-09T10:48:01;101442.09;;;26.63;27.69
64053;BME280;50299;49.524;8.536;2022-07-09T10:50:30;101438.97;;;26.43;27.27
64053;BME280;50299;49.524;8.536;2022-07-09T10:52:58;101433.16;;;26.64;28.02
64053;BME280;50299;49.524;8.536;2022-07-09T10:55:29;101432.44;;;26.53;26.55
64053;BME280;50299;49.524;8.536;2022-07-09T10:57:57;101442.13;;;25.85;26.90
64053;BME280;50299;49.524;8.536;2022-07-09T11:00:26;101432.56;;;25.51;27.95
64053;BME280;50299;49.524;8.536;2022-07-09T11:05:27;101417.06;;;25.84;26.98
64053;BME280;50299;49.524;8.536;2022-07-09T11:08:02;101412.38;;;25.42;27.78
64053;BME280;50299;49.524;8.536;2022-07-09T11:10:30;101402.84;;;25.91;26.28
64053;BME280;50299;49.524;8.536;2022-07-09T11:12:58;101411.19;;;26.20;26.81
64053;BME280;50299;49.524;8.536;2022-07-09T11:15:29;101406.94;;;26.53;26.25
64053;BME280;50299;49.524;8.536;2022-07-09T11:18:08;101403.94;;;26.74;25.93
64053;BME280;50299;49.524;8.536;2022-07-09T11:20:46;101409.19;;;24.97;27.41
64053;BME280;50299;49.524;8.536;2022-07-09T11:23:15;101405.06;;;24.01;29.01
64053;BME280;50299;49.524;8.536;2022-07-09T11:25:43;101410.72;;;24.05;29.26
64053;BME280;50299;49.524;8.536;2022-07-09T11:28:19;101401.88;;;24.21;29.87
64053;BME280;50299;49.524;8.536;2022-07-09T11:30:45;101397.50;;;24.77;29.02
64053;BME280;50299;49.524;8.536;2022-07-09T11:33:12;101394.28;;;24.85;28.16
64053;BME280;50299;49.524;8.536;2022-07-09T11:35:39;101395.22;;;25.81;27.70
64053;BME280;50299;49.524;8.536;2022-07-09T11:38:05;101386.47;;;26.24;26.18
64053;BME280;50299;49.524;8.536;2022-07-09T11:40:34;101377.72;;;24.73;27.40
64053;BME280;50299;49.524;8.536;2022-07-09T11:43:01;101387.34;;;24.26;29.02
64053;BME280;50299;49.524;8.536;2022-07-09T11:45:29;101385.34;;;25.05;27.47
64053;BME280;50299;49.524;8.536;2022-07-09T11:48:07;101380.41;;;25.34;28.15
64053;BME280;50299;49.524;8.536;2022-07-09T11:50:41;101390.63;;;24.99;27.41
64053;BME280;50299;49.524;8.536;2022-07-09T11:53:23;101376.09;;;24.94;28.08
64053;BME280;50299;49.524;8.536;2022-07-09T11:56:03;101364.47;;;25.79;27.46
64053;BME280;50299;49.524;8.536;2022-07-09T11:58:30;101370.88;;;25.98;27.11
64053;BME280;50299;49.524;8.536;2022-07-09T12:00:57;101365.19;;;26.01;26.24
64053;BME280;50299;49.524;8.536;2022-07-09T12:03:28;101359.13;;;24.94;27.99
64053;BME280;50299;49.524;8.536;2022-07-09T12:05:56;101362.63;;;25.44;28.10
64053;BME280;50299;49.524;8.536;2022-07-09T12:08:27;101358.59;;;26.15;25.63
64053;BME280;50299;49.524;8.536;2022-07-09T12:10:55;101352.59;;;26.09;25.19
64053;BME280;50299;49.524;8.536;2022-07-09T12:13:21;101352.16;;;26.67;25.91
64053;BME280;50299;49.524;8.536;2022-07-09T12:15:48;101346.44;;;26.22;25.52
64053;BME280;50299;49.524;8.536;2022-07-09T12:18:14;101335.00;;;26.77;24.15
64053;BME280;50299;49.524;8.536;2022-07-09T12:20:41;101332.63;;;26.72;25.21
64053;BME280;50299;49.524;8.536;2022-07-09T12:23:08;101331.97;;;26.09;25.54
64053;BME280;50299;49.524;8.536;2022-07-09T12:25:34;101327.44;;;25.38;26.83
64053;BME280;50299;49.524;8.536;2022-07-09T12:28:01;101329.31;;;26.32;27.29
64053;BME280;50299;49.524;8.536;2022-07-09T12:30:27;101325.03;;;25.44;26.04
64053;BME280;50299;49.524;8.536;2022-07-09T12:32:56;101324.78;;;25.02;25.68
64053;BME280;50299;49.524;8.536;2022-07-09T12:35:25;101315.75;;;25.47;25.69
64053;BME280;50299;49.524;8.536;2022-07-09T12:37:51;101319.91;;;25.87;24.26
64053;BME280;50299;49.524;8.536;2022-07-09T12:40:18;101307.97;;;25.54;24.95
64053;BME280;50299;49.524;8.536;2022-07-09T12:42:45;101297.16;;;26.08;24.95
64053;BME280;50299;49.524;8.536;2022-07-09T12:45:11;101310.19;;;25.95;24.07
64053;BME280;50299;49.524;8.536;2022-07-09T12:47:39;101307.91;;;26.28;23.78
64053;BME280;50299;49.524;8.536;2022-07-09T12:50:06;101306.63;;;26.36;24.71
64053;BME280;50299;49.524;8.536;2022-07-09T12:52:33;101307.06;;;26.34;23.44
64053;BME280;50299;49.524;8.536;2022-07-09T12:55:00;101304.16;;;25.86;23.49
64053;BME280;50299;49.524;8.536;2022-07-09T12:57:28;101302.84;;;25.31;24.28